Terminal Aerodrome Forecast
Issued by NWS Sterling, VA

Current Version | Previous Version | Graphics & Text | Print | Product List | Glossary On
Versions: 1 2 3 4 5 6 7 8 9 10 11 12 13 14 15 16 17 18 19 20 21 22
000
FTUS41 KLWX 250522
TAFDCA
TAF
KDCA 250522Z 2506/2606 04009KT 6SM -DZ BR VCSH BKN008 OVC015
     FM250900 04009KT 6SM -DZ BR VCSH BKN004 OVC015
     FM251200 03012G20KT 5SM -RADZ BKN008 OVC015
     FM252100 03010KT 5SM -RA BKN008 OVC015
     FM260300 36006KT 5SM BR BKN008 OVC015=

USA.gov is the U.S. government's official web portal to all federal, state and local government web resources and services.